SBUA/SJL METAR and TAF weather

Enter ICAO airport designator
Station Type Date Time Source
SBUA METAR 2021/05/11 19:00 UTC NOAA

SBUA 111900Z 33006KT 290V040 5000 HZ TS VCSH SCT025 FEW030CB SCT100 30/23 Q1010


Station Type Date Time Source
SBUA Decoded METAR 2021/05/11 19:00 UTC NOAA

Sao Gabriel Da Cachoeira, Brazil (SBUA) 00-08S 067-05W
May 11, 2021 - 03:00 PM EDT / 2021.05.11 1900 UTC
Wind: from the NNW (330 degrees) at 7 MPH (6 KT) (direction variable):0
Visibility: 3 mile(s):0
Sky conditions: partly cloudy
Weather: haze; thunder; showers in the vicinity; Cumulonimbus clouds observed
Temperature: 86 F (30 C)
Heat index: 93.4 F (34.1 C):1
Dew Point: 73 F (23 C)
Relative Humidity: 66%
Pressure (altimeter): 29.83 in. Hg (1010 hPa)
ob: SBUA 111900Z 33006KT 290V040 5000 HZ TS VCSH SCT025 FEW030CB SCT100 30/23 Q1010
cycle: 19

Station Type Date Time Source
SBUA TAF 2015/12/16 12:56 UTC NOAA

SBUA 161000Z 1612/1624 00000KT 8000 BKN008 FEW025TCU TN25/1612Z TX34/ 1618Z
BECMG 1613/1615 32005KT 9999 BKN015
BECMG 1617/1619 06005KT SCT017 FEW025TCU PROB40 1619/1622 4000 TSRA BKN015 FEW025CB
RMK PDZ

Example: see airport list